Independence of the Seas — C6WW4 — position and weather

sailwx.info

Track history (hours):
 
Tides and Currents Weather Stations Pressure Air Temp Water Temp Dewpoint Dewpoint Depression Visibility Wind Speed Wind Dir Waves Ship Positions

Independence of the Seas

Last reported at 2017-Mar-28 19:33 UTC. Time now 2017-Mar-28 20:17 UTC.
Position N 20°29' W 086°59'.

Length 339 m; draft 8.8 m.

Type: Passenger vessel. MMSI: 309374000.

Date/timePositionNaut miles runAvg speedWind from/ knotsBaromVisibWave heightAir tempDewpointWater temp
2017-Mar-28 19:33N 20°29' W 086°59'0 0.0
2017-Mar-28 18:33N 20°29' W 086°59'0 0.0
2017-Mar-28 17:30N 20°29' W 086°59'0 0.0
2017-Mar-28 16:33N 20°29' W 086°59'0 0.0
2017-Mar-28 15:33N 20°29' W 086°59'0 0.0
2017-Mar-28 14:32N 20°29' W 086°59'0 0.0
2017-Mar-28 13:33N 20°29' W 086°59'0 0.0
2017-Mar-28 12:34N 20°29' W 086°59'6 6.0
2017-Mar-28 11:33N 20°25' W 087°04'  
2017-Mar-26 06:00N 24°30' W 080°54'7714.0 110 / 181024.210.8 23.420.326.0
2017-Mar-26 00:29N 25°30' W 080°00'1314.3
2017-Mar-25 23:34N 25°43' W 079°60'1414.2
2017-Mar-25 22:33N 25°57' W 080°01'1010.2
2017-Mar-25 21:33N 26°06' W 080°07'1 0.7
2017-Mar-25 20:32N 26°05' W 080°07'0 0.0
2017-Mar-25 19:33N 26°05' W 080°07'0 0.0
2017-Mar-25 18:33N 26°05' W 080°07'0 0.0
2017-Mar-25 17:33N 26°05' W 080°07'0 0.0
2017-Mar-25 16:32N 26°05' W 080°07'0 0.0
2017-Mar-25 15:33N 26°05' W 080°07'0 0.0
2017-Mar-25 14:32N 26°05' W 080°07'0 0.0
2017-Mar-25 13:33N 26°05' W 080°07'0 0.0
2017-Mar-25 12:33N 26°05' W 080°07'0 0.0
2017-Mar-25 11:33N 26°05' W 080°07'0 0.0
2017-Mar-25 10:33N 26°05' W 080°07'4 4.3
2017-Mar-25 09:33N 26°05' W 080°02'2020.2
2017-Mar-25 08:34N 25°45' W 079°56'46817.6
2017-Mar-24 06:00N 19°42' W 074°36'80 3.3 030 / 281020.010.8 24.0 25.0
2017-Mar-23 06:00N 19°00' W 075°48'155 6.4 060 / 171022.110.8 24.022.525.0
2017-Mar-22 06:00N 20°24' W 073°30'20316.9 070 / 241022.010.8 24.021.025.0
2017-Mar-21 18:00N 21°48' W 076°48'10116.8 060 / 131025.110.8 23.013.425.0
2017-Mar-21 12:00N 22°36' W 078°24'10617.6 040 / 151025.610.8 21.014.225.0
2017-Mar-21 06:00N 24°06' W 079°24'9416.7 110 / 91025.610.8 21.014.225.0
2017-Mar-21 00:23N 25°36' W 079°53'1214.9
2017-Mar-20 23:33N 25°48' W 079°57'1716.6
2017-Mar-20 22:33N 26°03' W 080°03'4 3.7
2017-Mar-20 21:32N 26°05' W 080°07'0 0.0
2017-Mar-20 20:32N 26°05' W 080°07'0 0.0
2017-Mar-20 19:32N 26°05' W 080°07'0 0.0
2017-Mar-20 18:32N 26°05' W 080°07'0 0.0
2017-Mar-20 17:32N 26°05' W 080°07'0 0.0
2017-Mar-20 16:32N 26°05' W 080°07'0 0.0
2017-Mar-20 15:32N 26°05' W 080°07'0 0.0
2017-Mar-20 14:32N 26°05' W 080°07'0 0.0
2017-Mar-20 13:32N 26°05' W 080°07'0 0.0
2017-Mar-20 12:32N 26°05' W 080°07'0 0.0
2017-Mar-20 11:32N 26°05' W 080°07'0 0.0
2017-Mar-20 10:29N 26°05' W 080°07'0 0.0
2017-Mar-20 09:34N 26°05' W 080°07'5 5.0
2017-Mar-20 08:34N 26°03' W 080°02'1717.0
2017-Mar-20 07:33N 25°47' W 079°59'1414.3
2017-Mar-20 06:33N 25°32' W 079°57'915.6
2017-Mar-20 06:00N 25°24' W 079°54'37315.5 080 / 341023.010.8 22.015.425.0
2017-Mar-19 06:00N 21°54' W 085°30'11618.1 030 / 151026.610.8 23.016.525.0
2017-Mar-18 23:33N 20°32' W 086°58'3 2.7
2017-Mar-18 22:31N 20°29' W 086°59'0 0.0
2017-Mar-18 21:31N 20°29' W 086°59'0 0.0
2017-Mar-18 20:31N 20°29' W 086°59'  
Track history (hours):
 
Tides and Currents Weather Stations Pressure Air Temp Water Temp Dewpoint Dewpoint Depression Visibility Wind Speed Wind Dir Waves Ship Positions

Independence of the Seas

Last reported at 2017-Mar-28 19:33 UTC. Time now 2017-Mar-28 20:17 UTC.
Position N 20°29' W 086°59'.

Length 339 m; draft 8.8 m.

Type: Passenger vessel. MMSI: 309374000.

Date/timePositionNaut miles runAvg speedWind from/ knotsBaromVisibWave heightAir tempDewpointWater temp
2017-Mar-28 19:33N 20°29' W 086°59'0 0.0
2017-Mar-28 18:33N 20°29' W 086°59'0 0.0
2017-Mar-28 17:30N 20°29' W 086°59'0 0.0
2017-Mar-28 16:33N 20°29' W 086°59'0 0.0
2017-Mar-28 15:33N 20°29' W 086°59'0 0.0
2017-Mar-28 14:32N 20°29' W 086°59'0 0.0
2017-Mar-28 13:33N 20°29' W 086°59'0 0.0
2017-Mar-28 12:34N 20°29' W 086°59'6 6.0
2017-Mar-28 11:33N 20°25' W 087°04'  
2017-Mar-26 06:00N 24°30' W 080°54'7714.0 110 / 181024.210.8 23.420.326.0
2017-Mar-26 00:29N 25°30' W 080°00'1314.3
2017-Mar-25 23:34N 25°43' W 079°60'1414.2
2017-Mar-25 22:33N 25°57' W 080°01'1010.2
2017-Mar-25 21:33N 26°06' W 080°07'1 0.7
2017-Mar-25 20:32N 26°05' W 080°07'0 0.0
2017-Mar-25 19:33N 26°05' W 080°07'0 0.0
2017-Mar-25 18:33N 26°05' W 080°07'0 0.0
2017-Mar-25 17:33N 26°05' W 080°07'0 0.0
2017-Mar-25 16:32N 26°05' W 080°07'0 0.0
2017-Mar-25 15:33N 26°05' W 080°07'0 0.0
2017-Mar-25 14:32N 26°05' W 080°07'0 0.0
2017-Mar-25 13:33N 26°05' W 080°07'0 0.0
2017-Mar-25 12:33N 26°05' W 080°07'0 0.0
2017-Mar-25 11:33N 26°05' W 080°07'0 0.0
2017-Mar-25 10:33N 26°05' W 080°07'4 4.3
2017-Mar-25 09:33N 26°05' W 080°02'2020.2
2017-Mar-25 08:34N 25°45' W 079°56'46817.6
2017-Mar-24 06:00N 19°42' W 074°36'80 3.3 030 / 281020.010.8 24.0 25.0
2017-Mar-23 06:00N 19°00' W 075°48'155 6.4 060 / 171022.110.8 24.022.525.0
2017-Mar-22 06:00N 20°24' W 073°30'20316.9 070 / 241022.010.8 24.021.025.0
2017-Mar-21 18:00N 21°48' W 076°48'10116.8 060 / 131025.110.8 23.013.425.0
2017-Mar-21 12:00N 22°36' W 078°24'10617.6 040 / 151025.610.8 21.014.225.0
2017-Mar-21 06:00N 24°06' W 079°24'9416.7 110 / 91025.610.8 21.014.225.0
2017-Mar-21 00:23N 25°36' W 079°53'1214.9
2017-Mar-20 23:33N 25°48' W 079°57'1716.6
2017-Mar-20 22:33N 26°03' W 080°03'4 3.7
2017-Mar-20 21:32N 26°05' W 080°07'0 0.0
2017-Mar-20 20:32N 26°05' W 080°07'0 0.0
2017-Mar-20 19:32N 26°05' W 080°07'0 0.0
2017-Mar-20 18:32N 26°05' W 080°07'0 0.0
2017-Mar-20 17:32N 26°05' W 080°07'0 0.0
2017-Mar-20 16:32N 26°05' W 080°07'0 0.0
2017-Mar-20 15:32N 26°05' W 080°07'0 0.0
2017-Mar-20 14:32N 26°05' W 080°07'0 0.0
2017-Mar-20 13:32N 26°05' W 080°07'0 0.0
2017-Mar-20 12:32N 26°05' W 080°07'0 0.0
2017-Mar-20 11:32N 26°05' W 080°07'0 0.0
2017-Mar-20 10:29N 26°05' W 080°07'0 0.0
2017-Mar-20 09:34N 26°05' W 080°07'5 5.0
2017-Mar-20 08:34N 26°03' W 080°02'1717.0
2017-Mar-20 07:33N 25°47' W 079°59'1414.3
2017-Mar-20 06:33N 25°32' W 079°57'915.6
2017-Mar-20 06:00N 25°24' W 079°54'37315.5 080 / 341023.010.8 22.015.425.0
2017-Mar-19 06:00N 21°54' W 085°30'11618.1 030 / 151026.610.8 23.016.525.0
2017-Mar-18 23:33N 20°32' W 086°58'3 2.7
2017-Mar-18 22:31N 20°29' W 086°59'0 0.0
2017-Mar-18 21:31N 20°29' W 086°59'0 0.0
2017-Mar-18 20:31N 20°29' W 086°59'  

Dump ship's entire track history